createdAt,value
2022-12-15T00:00:45.937Z,-6.30
2022-12-15T00:03:32.214Z,-6.30
2022-12-15T00:06:19.019Z,-6.30
2022-12-15T00:09:07.466Z,-6.30
2022-12-15T00:11:55.541Z,-6.30
2022-12-15T00:14:44.839Z,-6.30
2022-12-15T00:17:32.580Z,-6.30
2022-12-15T00:20:17.863Z,-6.30
2022-12-15T00:23:05.846Z,-6.30
2022-12-15T00:25:53.889Z,-6.30
2022-12-15T00:28:39.685Z,-6.30
2022-12-15T00:31:26.761Z,-6.30
2022-12-15T00:34:12.452Z,-6.30
2022-12-15T00:36:58.203Z,-6.30
2022-12-15T00:39:26.417Z,-6.30
2022-12-15T00:41:54.622Z,-6.40
2022-12-15T00:44:23.223Z,-6.40
2022-12-15T00:46:57.534Z,-6.40
2022-12-15T00:49:44.494Z,-6.40
2022-12-15T00:52:30.771Z,-6.40
2022-12-15T00:55:16.258Z,-6.40
2022-12-15T00:58:02.630Z,-6.40
2022-12-15T01:00:49.003Z,-6.40
2022-12-15T01:03:38.023Z,-6.40
2022-12-15T01:06:24.538Z,-6.40
2022-12-15T01:09:10.300Z,-6.40
2022-12-15T01:11:56.076Z,-6.40
2022-12-15T01:14:44.657Z,-6.50
2022-12-15T01:17:32.801Z,-6.50
2022-12-15T01:20:15.104Z,-6.50
2022-12-15T01:22:43.467Z,-6.50
2022-12-15T01:25:12.716Z,-6.50
2022-12-15T01:27:40.910Z,-6.60
2022-12-15T01:30:11.562Z,-6.60
2022-12-15T01:32:45.716Z,-6.60
2022-12-15T01:35:16.038Z,-6.60
2022-12-15T01:37:44.268Z,-6.60
2022-12-15T01:40:34.288Z,-6.60
2022-12-15T01:43:05.005Z,-6.60
2022-12-15T01:45:56.175Z,-6.60
2022-12-15T01:48:29.428Z,-6.60
2022-12-15T01:51:23.303Z,-6.60
2022-12-15T01:54:00.715Z,-6.60
2022-12-15T01:56:35.509Z,-6.60
2022-12-15T01:59:10.586Z,-6.60
2022-12-15T02:01:40.870Z,-6.60
2022-12-15T02:04:12.288Z,-6.60
2022-12-15T02:06:41.764Z,-6.70
2022-12-15T02:09:10.023Z,-6.70
2022-12-15T02:11:53.143Z,-6.70
2022-12-15T02:14:29.571Z,-6.70
2022-12-15T02:17:15.402Z,-6.70
2022-12-15T02:20:36.577Z,-6.80
2022-12-15T02:23:53.072Z,-6.80
2022-12-15T02:27:04.288Z,-6.80
2022-12-15T02:30:17.811Z,-6.80
2022-12-15T02:33:06.271Z,-6.80
2022-12-15T02:35:50.939Z,-6.80
2022-12-15T02:38:33.388Z,-6.80
2022-12-15T02:41:03.050Z,-6.80
2022-12-15T02:43:34.558Z,-6.80
2022-12-15T02:46:18.011Z,-6.80
2022-12-15T02:48:59.186Z,-6.80
2022-12-15T02:51:38.200Z,-6.90
2022-12-15T02:54:36.274Z,-6.80
2022-12-15T02:57:16.119Z,-6.80
2022-12-15T02:59:55.369Z,-6.90
2022-12-15T03:02:27.940Z,-6.90
2022-12-15T03:04:56.775Z,-6.90
2022-12-15T03:07:27.788Z,-6.90
2022-12-15T03:09:57.146Z,-6.90
2022-12-15T03:12:25.523Z,-6.90
2022-12-15T03:14:53.603Z,-6.90
2022-12-15T03:17:21.837Z,-6.90
2022-12-15T03:19:51.312Z,-6.90
2022-12-15T03:22:22.241Z,-6.90
2022-12-15T03:24:52.525Z,-6.90
2022-12-15T03:27:20.636Z,-6.90
2022-12-15T03:29:48.716Z,-6.90
2022-12-15T03:32:16.856Z,-6.90
2022-12-15T03:34:45.162Z,-6.90
2022-12-15T03:37:14.596Z,-6.90
2022-12-15T03:39:42.788Z,-6.90
2022-12-15T03:42:13.289Z,-6.90
2022-12-15T03:44:41.354Z,-6.90
2022-12-15T03:47:09.409Z,-6.90
2022-12-15T03:49:37.541Z,-6.90
2022-12-15T03:52:05.706Z,-6.90
2022-12-15T03:54:37.436Z,-6.90
2022-12-15T03:57:07.068Z,-6.90
2022-12-15T03:59:35.170Z,-6.90
2022-12-15T04:02:03.332Z,-6.90
2022-12-15T04:04:31.797Z,-6.90
2022-12-15T04:07:00.172Z,-6.80
2022-12-15T04:09:30.334Z,-6.80
2022-12-15T04:11:59.721Z,-6.80
2022-12-15T04:14:30.248Z,-6.80
2022-12-15T04:17:00.826Z,-6.90
2022-12-15T04:19:46.535Z,-6.80
2022-12-15T04:22:17.889Z,-6.90
2022-12-15T04:25:03.645Z,-6.90
2022-12-15T04:27:50.500Z,-6.80
2022-12-15T04:30:38.534Z,-6.90
2022-12-15T04:33:30.495Z,-6.80
2022-12-15T04:36:16.046Z,-6.80
2022-12-15T04:39:04.189Z,-6.80
2022-12-15T04:41:52.621Z,-6.90
2022-12-15T04:44:39.913Z,-6.90
2022-12-15T04:47:25.579Z,-6.90
2022-12-15T04:50:11.048Z,-6.90
2022-12-15T04:52:59.433Z,-6.90
2022-12-15T04:55:44.767Z,-6.80
2022-12-15T04:58:30.278Z,-6.90
2022-12-15T05:01:17.530Z,-6.90
2022-12-15T05:04:03.166Z,-6.90
2022-12-15T05:06:48.647Z,-6.90
2022-12-15T05:09:34.009Z,-6.90
2022-12-15T05:12:19.801Z,-6.90
2022-12-15T05:15:07.995Z,-6.90
2022-12-15T05:17:54.890Z,-6.90
2022-12-15T05:20:42.898Z,-6.90
2022-12-15T05:23:28.710Z,-6.90
2022-12-15T05:26:17.500Z,-6.90
2022-12-15T05:29:03.219Z,-6.90
2022-12-15T05:31:52.141Z,-6.90
2022-12-15T05:34:23.356Z,-6.90
2022-12-15T05:36:51.867Z,-6.90
2022-12-15T05:39:22.886Z,-6.90
2022-12-15T05:41:53.882Z,-6.90
2022-12-15T05:44:23.255Z,-6.90
2022-12-15T05:46:51.537Z,-6.90
2022-12-15T05:49:20.115Z,-6.90
2022-12-15T05:51:49.837Z,-6.90
2022-12-15T05:54:19.642Z,-6.90
2022-12-15T05:56:50.300Z,-6.90
2022-12-15T05:59:21.418Z,-6.90
2022-12-15T06:01:51.751Z,-6.90
2022-12-15T06:04:20.077Z,-6.90
2022-12-15T06:06:51.797Z,-6.90
2022-12-15T06:09:20.093Z,-6.90
2022-12-15T06:11:48.271Z,-7.00
2022-12-15T06:14:18.905Z,-7.00
2022-12-15T06:16:50.359Z,-6.90
2022-12-15T06:19:20.692Z,-7.00
2022-12-15T06:21:49.110Z,-7.00
2022-12-15T06:24:20.878Z,-7.00
2022-12-15T06:26:49.556Z,-7.00
2022-12-15T06:29:20.542Z,-7.00
2022-12-15T06:31:50.965Z,-6.90
2022-12-15T06:34:19.407Z,-7.00
2022-12-15T06:36:50.250Z,-7.00
2022-12-15T06:39:18.359Z,-7.00
2022-12-15T06:41:47.784Z,-7.00
2022-12-15T06:44:17.056Z,-7.00
2022-12-15T06:46:47.638Z,-7.00
2022-12-15T06:49:15.844Z,-7.00
2022-12-15T06:51:44.982Z,-7.00
2022-12-15T06:54:15.503Z,-7.00
2022-12-15T06:56:47.019Z,-7.00
2022-12-15T06:59:18.214Z,-7.00
2022-12-15T07:01:46.481Z,-7.00
2022-12-15T07:04:14.861Z,-7.00
2022-12-15T07:06:43.118Z,-7.00
2022-12-15T07:09:16.159Z,-7.00
2022-12-15T07:11:45.115Z,-7.10
2022-12-15T07:14:14.601Z,-7.10
2022-12-15T07:16:42.864Z,-7.10
2022-12-15T07:19:13.431Z,-7.10
2022-12-15T07:21:44.092Z,-7.10
2022-12-15T07:24:13.149Z,-7.10
2022-12-15T07:26:44.775Z,-7.10
2022-12-15T07:29:22.721Z,-7.10
2022-12-15T07:31:53.893Z,-7.10
2022-12-15T07:34:24.604Z,-7.10
2022-12-15T07:36:55.355Z,-7.10
2022-12-15T07:39:27.315Z,-7.10
2022-12-15T07:41:55.497Z,-7.10
2022-12-15T07:44:24.929Z,-7.10
2022-12-15T07:46:55.431Z,-7.10
2022-12-15T07:49:23.786Z,-7.10
2022-12-15T07:51:51.914Z,-7.10
2022-12-15T07:54:20.532Z,-7.10
2022-12-15T07:56:50.252Z,-7.10
2022-12-15T07:59:18.959Z,-7.10
2022-12-15T08:01:49.657Z,-7.10
2022-12-15T08:04:20.281Z,-7.00
2022-12-15T08:06:51.345Z,-7.00
2022-12-15T08:09:21.632Z,-7.10
2022-12-15T08:11:52.309Z,-7.00
2022-12-15T08:14:22.820Z,-7.00
2022-12-15T08:16:52.675Z,-7.00
2022-12-15T08:19:20.903Z,-7.00
2022-12-15T08:21:49.141Z,-6.90
2022-12-15T08:24:17.718Z,-6.90
2022-12-15T08:26:50.040Z,-6.90
2022-12-15T08:32:08.933Z,-6.80
2022-12-15T08:34:37.210Z,-6.80
2022-12-15T08:37:05.389Z,-6.80
2022-12-15T08:39:33.510Z,-6.80
2022-12-15T08:42:01.671Z,-6.70
2022-12-15T08:44:29.800Z,-6.70
2022-12-15T08:47:00.546Z,-6.70
2022-12-15T08:49:30.188Z,-6.60
2022-12-15T08:51:58.318Z,-6.60
2022-12-15T08:54:29.107Z,-6.60
2022-12-15T08:56:57.202Z,-6.50
2022-12-15T08:59:25.994Z,-6.50
2022-12-15T09:01:54.278Z,-6.50
2022-12-15T09:04:22.519Z,-6.40
2022-12-15T09:06:54.460Z,-6.40
2022-12-15T09:09:22.682Z,-6.30
2022-12-15T09:11:51.247Z,-6.30
2022-12-15T09:14:28.600Z,-6.20
2022-12-15T09:16:57.613Z,-6.20
2022-12-15T09:19:26.345Z,-6.10
2022-12-15T09:21:55.833Z,-6.10
2022-12-15T09:24:34.767Z,-6.00
2022-12-15T09:27:04.387Z,-5.90
2022-12-15T09:29:32.763Z,-5.90
2022-12-15T09:32:01.044Z,-5.80
2022-12-15T09:34:29.254Z,-5.80
2022-12-15T09:36:58.934Z,-5.70
2022-12-15T09:39:27.165Z,-5.60
2022-12-15T09:41:59.924Z,-5.60
2022-12-15T09:44:30.503Z,-5.50
2022-12-15T09:47:15.949Z,-5.40
2022-12-15T09:49:54.410Z,-5.40
2022-12-15T09:52:29.058Z,-5.30
2022-12-15T09:55:01.600Z,-5.30
2022-12-15T09:57:38.698Z,-5.20
2022-12-15T10:00:21.016Z,-5.10
2022-12-15T10:03:17.001Z,-5.10
2022-12-15T10:08:54.620Z,-5.00
2022-12-15T10:11:41.335Z,-4.90
2022-12-15T10:14:22.380Z,-4.80
2022-12-15T10:17:02.704Z,-4.80
2022-12-15T10:19:40.954Z,-4.70
2022-12-15T10:22:13.893Z,-4.60
2022-12-15T10:25:09.340Z,-4.50
2022-12-15T10:27:53.265Z,-4.50
2022-12-15T10:30:23.218Z,-4.30
2022-12-15T10:32:58.444Z,-4.20
2022-12-15T10:35:30.217Z,-4.20
2022-12-15T10:37:59.896Z,-4.10
2022-12-15T10:40:49.954Z,-4.00
2022-12-15T10:43:30.738Z,-3.90
2022-12-15T10:46:06.459Z,-3.90
2022-12-15T10:48:34.713Z,-3.80
2022-12-15T10:51:16.615Z,-3.70
2022-12-15T10:53:50.581Z,-3.60
2022-12-15T10:56:28.839Z,-3.50
2022-12-15T10:59:03.565Z,-3.40
2022-12-15T11:01:34.117Z,-3.30
2022-12-15T11:04:04.880Z,-3.20
2022-12-15T11:06:36.803Z,-3.10
2022-12-15T11:09:30.015Z,-3.00
2022-12-15T11:12:19.989Z,-2.90
2022-12-15T11:14:52.148Z,-2.80
2022-12-15T11:17:22.278Z,-2.70
2022-12-15T11:19:59.979Z,-2.60
2022-12-15T11:22:39.633Z,-2.60
2022-12-15T11:25:17.598Z,-2.50
2022-12-15T11:27:49.968Z,-2.40
2022-12-15T11:30:22.231Z,-2.30
2022-12-15T11:32:56.353Z,-2.20
2022-12-15T11:35:33.362Z,-2.10
2022-12-15T11:38:09.985Z,-2.10
2022-12-15T11:40:40.899Z,-2.00
2022-12-15T11:43:52.819Z,-1.90
2022-12-15T11:46:23.463Z,-1.80
2022-12-15T11:49:26.241Z,-1.80
2022-12-15T11:52:00.808Z,-1.70
2022-12-15T11:54:39.564Z,-1.60
2022-12-15T11:57:31.464Z,-1.50
2022-12-15T12:00:05.610Z,-1.40
2022-12-15T12:03:06.832Z,-1.40
2022-12-15T12:05:47.447Z,-1.30
2022-12-15T12:08:51.130Z,-1.20
2022-12-15T12:11:26.338Z,-1.20
2022-12-15T12:14:11.641Z,-1.10
2022-12-15T12:16:50.317Z,-1.10
2022-12-15T12:19:24.945Z,-1.00
2022-12-15T12:22:01.460Z,-1.00
2022-12-15T12:24:34.174Z,-1.00
2022-12-15T12:27:06.094Z,-0.90
2022-12-15T12:29:36.311Z,-0.90
2022-12-15T12:32:14.230Z,-0.80
2022-12-15T12:35:30.848Z,-0.80
2022-12-15T12:38:03.348Z,-0.70
2022-12-15T12:40:46.996Z,-0.70
2022-12-15T12:43:31.659Z,-0.60
2022-12-15T12:46:10.051Z,-0.60
2022-12-15T12:48:42.857Z,-0.50
2022-12-15T12:51:22.618Z,-0.50
2022-12-15T12:53:51.735Z,-0.50
2022-12-15T12:56:36.957Z,-0.50
2022-12-15T12:59:38.725Z,-0.40
2022-12-15T13:02:42.779Z,-0.40
2022-12-15T13:05:28.579Z,-0.30
2022-12-15T13:08:28.311Z,-0.30
2022-12-15T13:10:57.267Z,-0.20
2022-12-15T13:13:53.092Z,-0.20
2022-12-15T13:16:25.556Z,-0.20
2022-12-15T13:18:58.670Z,-0.20
2022-12-15T13:21:55.017Z,-0.20
2022-12-15T13:24:37.489Z,-0.20
2022-12-15T13:27:16.185Z,-0.20
2022-12-15T13:30:00.804Z,-0.10
2022-12-15T13:32:35.136Z,-0.10
2022-12-15T13:35:22.403Z,-0.10
2022-12-15T13:37:54.507Z,-0.10
2022-12-15T13:40:51.262Z,-0.10
2022-12-15T13:43:42.536Z,-0.10
2022-12-15T13:46:17.859Z,-0.10
2022-12-15T13:48:49.361Z,-0.10
2022-12-15T13:51:42.837Z,-0.10
2022-12-15T13:54:18.663Z,-0.10
2022-12-15T13:56:54.452Z,-0.10
2022-12-15T13:59:30.521Z,-0.10
2022-12-15T14:01:58.853Z,-0.10
2022-12-15T14:04:27.677Z,-0.10
2022-12-15T14:06:57.595Z,-0.10
2022-12-15T14:09:32.133Z,-0.10
2022-12-15T14:12:02.675Z,-0.10
2022-12-15T14:14:34.531Z,-0.10
2022-12-15T14:17:04.826Z,-0.20
2022-12-15T14:19:41.240Z,-0.20
2022-12-15T14:22:27.533Z,-0.20
2022-12-15T14:25:03.653Z,-0.20
2022-12-15T14:27:34.960Z,-0.20
2022-12-15T14:30:29.272Z,-0.20
2022-12-15T14:33:01.567Z,-0.20
2022-12-15T14:35:37.679Z,-0.30
2022-12-15T14:38:12.369Z,-0.30
2022-12-15T14:40:46.297Z,-0.40
2022-12-15T14:43:21.185Z,-0.40
2022-12-15T14:45:56.695Z,-0.40
2022-12-15T14:48:40.939Z,-0.50
2022-12-15T14:51:14.435Z,-0.50
2022-12-15T14:53:44.655Z,-0.50
2022-12-15T14:56:30.077Z,-0.60
2022-12-15T14:59:03.793Z,-0.60
2022-12-15T15:01:40.008Z,-0.70
2022-12-15T15:04:29.135Z,-0.70
2022-12-15T15:07:00.220Z,-0.70
2022-12-15T15:09:31.099Z,-0.80
2022-12-15T15:12:05.216Z,-0.80
2022-12-15T15:14:38.562Z,-0.80
2022-12-15T15:17:09.739Z,-0.90
2022-12-15T15:19:40.090Z,-0.90
2022-12-15T15:22:28.398Z,-0.90
2022-12-15T15:24:56.549Z,-1.00
2022-12-15T15:27:35.965Z,-1.00
2022-12-15T15:30:21.498Z,-1.10
2022-12-15T15:32:54.545Z,-1.10
2022-12-15T15:35:23.896Z,-1.20
2022-12-15T15:37:53.562Z,-1.30
2022-12-15T15:40:21.719Z,-1.30
2022-12-15T15:42:53.350Z,-1.40
2022-12-15T15:45:21.509Z,-1.40
2022-12-15T15:47:52.554Z,-1.50
2022-12-15T15:50:30.720Z,-1.50
2022-12-15T15:52:59.538Z,-1.60
2022-12-15T15:55:39.407Z,-1.60
2022-12-15T15:58:13.240Z,-1.60
2022-12-15T16:00:41.488Z,-1.70
2022-12-15T16:03:10.820Z,-1.70
2022-12-15T16:05:39.930Z,-1.80
2022-12-15T16:08:08.694Z,-1.80
2022-12-15T16:10:39.174Z,-1.90
2022-12-15T16:13:07.412Z,-1.90
2022-12-15T16:15:37.790Z,-1.90
2022-12-15T16:18:06.145Z,-2.00
2022-12-15T16:20:35.474Z,-2.00
2022-12-15T16:23:07.826Z,-2.10
2022-12-15T16:25:48.535Z,-2.10
2022-12-15T16:28:20.370Z,-2.10
2022-12-15T16:30:53.272Z,-2.20
2022-12-15T16:33:22.289Z,-2.20
2022-12-15T16:35:54.381Z,-2.20
2022-12-15T16:38:26.152Z,-2.30
2022-12-15T16:40:58.114Z,-2.30
2022-12-15T16:43:32.868Z,-2.30
2022-12-15T16:46:06.332Z,-2.30
2022-12-15T16:48:35.881Z,-2.30
2022-12-15T16:51:08.892Z,-2.30
2022-12-15T16:53:40.268Z,-2.30
2022-12-15T16:56:13.439Z,-2.40
2022-12-15T16:58:48.498Z,-2.40
2022-12-15T17:01:18.542Z,-2.40
2022-12-15T17:03:47.228Z,-2.50
2022-12-15T17:06:17.543Z,-2.50
2022-12-15T17:08:50.745Z,-2.50
2022-12-15T17:11:21.809Z,-2.50
2022-12-15T17:13:54.698Z,-2.60
2022-12-15T17:16:28.841Z,-2.60
2022-12-15T17:18:59.498Z,-2.60
2022-12-15T17:21:33.366Z,-2.60
2022-12-15T17:24:05.650Z,-2.60
2022-12-15T17:26:38.146Z,-2.60
2022-12-15T17:29:10.066Z,-2.70
2022-12-15T17:31:42.352Z,-2.70
2022-12-15T17:34:25.649Z,-2.70
2022-12-15T17:36:56.129Z,-2.80
2022-12-15T17:39:27.735Z,-2.80
2022-12-15T17:42:01.060Z,-2.80
2022-12-15T17:44:35.784Z,-2.80
2022-12-15T17:47:09.219Z,-2.80
2022-12-15T17:49:38.854Z,-2.80
2022-12-15T17:52:19.780Z,-2.80
2022-12-15T17:54:48.115Z,-2.90
2022-12-15T17:57:16.325Z,-2.90
2022-12-15T17:59:44.596Z,-2.90
2022-12-15T18:02:14.969Z,-2.90
2022-12-15T18:04:44.019Z,-2.90
2022-12-15T18:07:17.472Z,-2.90
2022-12-15T18:09:48.741Z,-2.90
2022-12-15T18:12:22.294Z,-3.00
2022-12-15T18:14:53.137Z,-3.00
2022-12-15T18:17:23.018Z,-3.00
2022-12-15T18:19:53.507Z,-3.00
2022-12-15T18:22:23.634Z,-3.00
2022-12-15T18:24:55.224Z,-3.00
2022-12-15T18:27:26.700Z,-3.00
2022-12-15T18:29:57.691Z,-3.00
2022-12-15T18:32:29.846Z,-3.00
2022-12-15T18:34:58.386Z,-3.00
2022-12-15T18:37:26.582Z,-3.00
2022-12-15T18:39:57.113Z,-3.00
2022-12-15T18:42:29.319Z,-3.00
2022-12-15T18:45:00.376Z,-3.00
2022-12-15T18:47:32.352Z,-3.00
2022-12-15T18:50:00.571Z,-3.00
2022-12-15T18:52:34.325Z,-3.00
2022-12-15T18:55:03.040Z,-3.00
2022-12-15T18:57:33.403Z,-3.10
2022-12-15T19:00:04.684Z,-3.10
2022-12-15T19:02:34.482Z,-3.10
2022-12-15T19:05:02.725Z,-3.10
2022-12-15T19:07:30.954Z,-3.10
2022-12-15T19:10:00.082Z,-3.10
2022-12-15T19:12:28.398Z,-3.10
2022-12-15T19:14:57.372Z,-3.10
2022-12-15T19:17:43.069Z,-3.10
2022-12-15T19:20:35.716Z,-3.10
2022-12-15T19:23:07.530Z,-3.20
2022-12-15T19:25:39.752Z,-3.20
2022-12-15T19:28:14.963Z,-3.20
2022-12-15T19:30:43.668Z,-3.20
2022-12-15T19:33:12.754Z,-3.20
2022-12-15T19:35:44.623Z,-3.20
2022-12-15T19:38:22.051Z,-3.20
2022-12-15T19:40:53.397Z,-3.30
2022-12-15T19:43:22.755Z,-3.30
2022-12-15T19:45:52.258Z,-3.30
2022-12-15T19:48:23.848Z,-3.30
2022-12-15T19:50:54.726Z,-3.40
2022-12-15T19:53:26.070Z,-3.40
2022-12-15T19:56:01.306Z,-3.40
2022-12-15T19:58:34.014Z,-3.50
2022-12-15T20:01:08.451Z,-3.50
2022-12-15T20:03:37.884Z,-3.50
2022-12-15T20:06:14.357Z,-3.60
2022-12-15T20:08:45.554Z,-3.60
2022-12-15T20:11:19.305Z,-3.60
2022-12-15T20:13:48.021Z,-3.60
2022-12-15T20:16:19.269Z,-3.70
2022-12-15T20:18:52.127Z,-3.70
2022-12-15T20:21:23.401Z,-3.70
2022-12-15T20:23:57.748Z,-3.80
2022-12-15T20:26:27.090Z,-3.80
2022-12-15T20:28:55.321Z,-3.80
2022-12-15T20:31:25.652Z,-3.80
2022-12-15T20:33:54.738Z,-3.90
2022-12-15T20:36:27.406Z,-3.90
2022-12-15T20:38:58.643Z,-3.90
2022-12-15T20:41:28.788Z,-4.00
2022-12-15T20:43:57.829Z,-4.00
2022-12-15T20:46:32.840Z,-4.00
2022-12-15T20:49:01.394Z,-4.00
2022-12-15T20:51:33.256Z,-4.00
2022-12-15T20:54:03.357Z,-4.00
2022-12-15T20:56:31.588Z,-4.00
2022-12-15T20:59:01.975Z,-4.00
2022-12-15T21:01:32.862Z,-4.10
2022-12-15T21:04:08.886Z,-4.10
2022-12-15T21:06:38.427Z,-4.20
2022-12-15T21:09:11.984Z,-4.20
2022-12-15T21:11:41.051Z,-4.30
2022-12-15T21:14:18.752Z,-4.30
2022-12-15T21:16:49.642Z,-4.30
2022-12-15T21:19:20.928Z,-4.30
2022-12-15T21:21:55.866Z,-4.30
2022-12-15T21:24:26.053Z,-4.40
2022-12-15T21:26:54.827Z,-4.40
2022-12-15T21:29:25.820Z,-4.40
2022-12-15T21:31:54.561Z,-4.40
2022-12-15T21:34:23.189Z,-4.40
2022-12-15T21:36:55.076Z,-4.40
2022-12-15T21:39:29.420Z,-4.40
2022-12-15T21:42:00.678Z,-4.40
2022-12-15T21:44:28.844Z,-4.40
2022-12-15T21:46:57.120Z,-4.50
2022-12-15T21:49:25.510Z,-4.50
2022-12-15T21:51:57.575Z,-4.50
2022-12-15T21:54:30.929Z,-4.50
2022-12-15T21:57:02.684Z,-4.50
2022-12-15T21:59:34.080Z,-4.60
2022-12-15T22:02:02.861Z,-4.60
2022-12-15T22:04:34.895Z,-4.60
2022-12-15T22:07:07.161Z,-4.60
2022-12-15T22:09:35.348Z,-4.70
2022-12-15T22:12:03.847Z,-4.70
2022-12-15T22:14:34.661Z,-4.70
2022-12-15T22:17:12.943Z,-4.70
2022-12-15T22:19:41.301Z,-4.80
2022-12-15T22:22:13.093Z,-4.80
2022-12-15T22:24:41.501Z,-4.80
2022-12-15T22:27:18.951Z,-4.80
2022-12-15T22:29:52.513Z,-4.80
2022-12-15T22:32:20.819Z,-4.80
2022-12-15T22:34:48.991Z,-4.90
2022-12-15T22:37:18.480Z,-4.90
2022-12-15T22:39:46.640Z,-4.90
2022-12-15T22:42:17.657Z,-4.90
2022-12-15T22:44:46.202Z,-4.90
2022-12-15T22:47:14.550Z,-5.00
2022-12-15T22:49:42.918Z,-5.00
2022-12-15T22:52:18.574Z,-5.00
2022-12-15T22:54:47.801Z,-5.00
2022-12-15T22:57:23.116Z,-5.10
2022-12-15T23:00:00.355Z,-5.10
2022-12-15T23:02:29.958Z,-5.10
2022-12-15T23:04:58.133Z,-5.10
2022-12-15T23:07:28.640Z,-5.10
2022-12-15T23:10:12.945Z,-5.10
2022-12-15T23:12:43.457Z,-5.10
2022-12-15T23:15:29.574Z,-5.10
2022-12-15T23:17:57.686Z,-5.10
2022-12-15T23:20:25.782Z,-5.10
2022-12-15T23:22:55.189Z,-5.10
2022-12-15T23:25:23.345Z,-5.10
2022-12-15T23:27:51.567Z,-5.20
2022-12-15T23:30:22.781Z,-5.20
2022-12-15T23:32:51.044Z,-5.20
2022-12-15T23:35:25.408Z,-5.20
2022-12-15T23:37:54.906Z,-5.20
2022-12-15T23:40:23.540Z,-5.20
2022-12-15T23:42:52.380Z,-5.20
2022-12-15T23:45:23.208Z,-5.20
2022-12-15T23:47:53.767Z,-5.20
2022-12-15T23:50:22.295Z,-5.10
2022-12-15T23:52:51.834Z,-5.10
2022-12-15T23:55:21.512Z,-5.10
2022-12-15T23:57:49.786Z,-5.00
